Mammoth Lakes, CA (93546)

7:38 PM PDT on August 29, 2015 (GMT -0700)
Bigwood, Mammoth Lakes, CA | | Change Station
CLOSE
Current Station
Personal Weather Station
Location: Mammoth Lakes, CA
Elevation: 8045 ft
Nearby Weather Stations
Active Advisory: Fire Weather Warning

Elev 8045 ft 37.64 °N, 118.99 °W | Updated 40 seconds ago

Clear
Clear
58.0 °F
Feels Like 58.0 °F
N
5.0
Wind Variable Wind from WNW
Gusts 6.0 mph

Today
High -- | Low -- °F
--% Chance of Precip.
Yesterday
High -- | Low -- °F
Precip. -- in
6:23 AM 7:29 PM
Full, 100% visible
Pressure 30.23 in
Visibility 10.0 miles
Clouds Clear
Dew Point 41 °F
Humidity 53%
Rainfall 0.00 in
Snow Depth Not available.
UV 0 out of 12
Pollen 8.70 out of 12
Air Quality Not available.
Flu Activity Not available.
METAR KMMH 300235Z AUTO 30015G24KT 10SM CLR 18/04 A3023 RMK AO1
Pressure 30.23 in
Visibility 10.0 miles
Clouds Clear
Dew Point 41 °F
Humidity 53%
Rainfall 0.00 in
Snow Depth Not available.
UV 0 out of 12
Pollen 8.70 out of 12
Air Quality Not available.
Flu Activity Not available.
METAR KMMH 300235Z AUTO 30015G24KT 10SM CLR 18/04 A3023 RMK AO1

10-Day Weather Forecast

×

Almanac

Astronomy

Aug. 29, 2015 Rise Set
Actual Time
Civil Twilight
Nautical Twilight
Astronomical Twilight
Moon
Length of Visible Light
Length of Day
Tomorrow will be .
, % of the Moon is Illuminated

Today's Extremes

State Highs State Lows

Community

WunderPhotos

Upload Photos

1,850,852 photos uploaded!

WunderBlogs® & News

Nearby

Air Quality

  Air Quality AQ Index Pollutant
Not available.

Snow Depth

Station Depth Elevation

Earthquake Activity

City Distance Mag. Time & Date
Minimum magnitude displayed is 2.5.

Coastal Water Temperatures

Place Temperature

Stations

Nearby Weather Stations

Station Location Temp. Windchill Dew Point Humidity Wind Precip. Elev Updated Type
                   
Fire Weather Warning
Statement as of 5:29 PM PDT on August 29, 2015

... Red flag warning now in effect until 9 PM PDT this evening for
gusty winds and low fuel moistures for the eastern Sierra and
much of western Nevada...

* affected area... fire zone 273 Mono-eastern alpine counties...
fire zone 450 western Nevada Sierra front... fire zone 453 west
central Nevada basin and range and fire zone 459 Mineral and
southern Lyon counties.

* Winds... southwest to west 15 to 30 mph with gusts up to 45 mph.
Sierra ridge wind gusts up to 65 mph.

* Humidity... 15 to 25 percent. Driest conditions expected this
evening near and east of Highway 95.

* Impacts... although humidity values will be increasing through
the evening... the gusty winds along with the low fuel moistures
will create critical fire weather conditions.

Precautionary/preparedness actions...

A red flag warning means that critical fire weather conditions
will occur. Continue to check weather.Gov/Reno for updates.



Http://weather.Gov/Reno